Tiempo atmosférico en la estación meteorológica de Manresa, Barcelona (291 m.)



Fecha
DESCASC
Temp. máxima en grados centígrados (hora)
DESCASC
Temp. mínima en grados centígrados (hora)
DESCASC
Temp. media en grados centígrados
DESCASC
Racha de viento máxima en m/sg (hora)
DESCASC
Velocidad máxima media en intervalos de 10 minutos(hora)
DESCASC
Precipitaciones diarias en mm
DESCASC
Precipitaciones de 00:00 a 06:00 en mm
DESCASC
Precipitaciones de 06:00 a 12:00 en mm
DESCASC
Precipitaciones de 12:00 a 18:00 en mm
DESCASC
Precipitaciones de 18:00 a 24:00 en mm
DESCASC
29-03-2020 20.1 (16:50) 3 (08:00) 11.6 8.33 (20:00) 4.44 (20:00) 1.4 0 0 0 1.4
28-03-2020 18.2 (15:40) 5.3 (07:10) 11.8 5.56 (17:30) 2.78 (17:30) 0 0 0 0 0
27-03-2020 13.5 (14:30) -1.5 (07:10) 6 5.28 (17:50) 2.22 (17:50) 0.2 0 0 0 0.2
26-03-2020 11.5 (15:50) -0.2 (00:00) 5.6 9.17 (16:20) 5.28 (16:20) 0 0 0 0 0
25-03-2020 11.4 (14:30) 4.2 (00:00) 7.8 7.22 (08:10) 3.89 (08:10) 0 0 0 0 0
24-03-2020 14.5 (14:00) 7.7 (00:00) 11.1 7.5 (15:10) 3.89 (15:10) 0 0 0 0 0
23-03-2020 14.3 (15:00) 9.4 (00:00) 11.8 4.72 (20:00) 2.78 (20:10) 7.2 1.8 4 1.4 0
22-03-2020 16.4 (12:40) 6.1 (06:30) 11.2 6.67 (14:30) 3.61 (15:10) 0 0 0 0 0
21-03-2020 16.8 (14:20) 1.7 (00:00) 9.2 7.22 (17:40) 4.17 (17:40) 0 0 0 0 0
20-03-2020 17.5 (15:50) 3 (00:00) 10.3 8.89 (16:20) 4.44 (16:20) 0 0 0 0 0
19-03-2020 17.9 (14:20) 3.7 (00:00) 10.8 8.33 (15:20) 4.44 (16:10) 0 0 0 0 0
18-03-2020 18.7 (15:20) 6.7 (00:00) 12.7 6.94 (16:10) 3.61 (16:10) 0 0 0 0 0
17-03-2020 16.6 (17:30) 10.1 (00:00) 13.4 5.83 (02:40) 3.61 (02:30) 0 0 0 0 0
16-03-2020 13.4 (11:40) 10.4 (00:00) 11.9 8.61 (10:50) 4.17 (11:40) 36 0 0 31.2 4.8
15-03-2020 17.2 (13:40) 5.6 (00:00) 11.4 7.5 (16:50) 3.61 (16:30) 0 0 0 0 0
14-03-2020 18.7 (16:00) 8.2 (00:00) 13.5 7.5 (18:00) 3.89 (18:00) 0 0 0 0 0
13-03-2020 19.9 (14:00) 8.1 (07:50) 14 7.22 (16:40) 3.61 (16:10) 0 0 0 0 0
12-03-2020 24.6 (16:30) 5.7 (00:00) 15.2 7.78 (19:50) 4.72 (19:30) 0 0 0 0 0
11-03-2020 24.1 (16:20) 2.9 (00:00) 13.5 5.83 (17:30) 3.61 (17:50) 0 0 0 0 0
10-03-2020 16 (13:30) 2.8 (00:00) 9.4 7.22 (13:40) 4.17 (13:50) 0 0 0 0 0
09-03-2020 17.9 (16:10) 2.8 (00:00) 10.3 11.94 (15:30) 6.39 (15:40) 0 0 0 0 0
08-03-2020 18 (15:20) 2.6 (00:00) 10.3 7.78 (16:20) 4.72 (16:20) 0 0 0 0 0
07-03-2020 17 (16:50) -0.1 (00:00) 8.4 10 (13:50) 5 (13:00) 0 0 0 0 0
06-03-2020 14.3 (14:10) 1.9 (00:00) 8.1 13.89 (14:20) 7.5 (14:30) 0.4 0 0 0.4 0
05-03-2020 19.2 (14:50) 5.7 (00:00) 12.5 14.72 (17:10) 7.78 (17:00) 0 0 0 0 0
04-03-2020 19.8 (16:30) 4.8 (00:00) 12.3 9.72 (01:00) 5.56 (00:50) 0 0 0 0 0
03-03-2020 11.9 (17:50) 4.7 (00:00) 8.3 14.17 (14:40) 7.5 (14:30) 0 0 0 0 0
02-03-2020 16 (14:50) 6.5 (00:00) 11.3 20.28 (16:20) 11.11 (16:20) 4.4 2.8 1.4 0.2 0
01-03-2020 18.4 (16:50) 10.4 (00:00) 14.4 15 (16:30) 7.5 (15:20) 0 0 0 0 0
29-02-2020 18.8 (13:40) 6.7 (00:00) 12.7 10.28 (14:40) 6.11 (14:50) 0 0 0 0 0

Gráficas

Temp. máximas Temp. mínimas Temp. medias Precipitaciones Rachas de viento máximas Velocidades máximas media en intervalos de 10 minutos

Datos horarios

Fecha y hora oficial Temperatura (ºC) Velocidad del viento (km/h) Dirección del viento Racha (km/h) Dirección de racha Precipitación (mm) Presión (hPa) Tendencia (hPa) Humedad (%)
2020-03-29 23:00:00 11.1 2 Norte 11 Norte 0 979.8 0.6 86
2020-03-29 22:00:00 11.6 4 Noroeste 17 Este 0 979.8 1.3 83
2020-03-29 21:00:00 11.6 10 Este 24 Nordeste 1.4 979.4 1.5 85
2020-03-29 20:00:00 14.1 16 Nordeste 30 Nordeste 0 979.2 1.1 65
2020-03-29 19:00:00 17.1 13 Sur 24 Sudoeste 0 978.5 -0.1 46
2020-03-29 18:00:00 19.1 9 Oeste 21 Oeste 0 977.9 -1.4 34
2020-03-29 17:00:00 20 11 Oeste 21 Noroeste 0 978.1 -2 32
2020-03-29 16:00:00 19.2 12 Oeste 22 Oeste 0 978.6 -2.1 39
2020-03-29 15:00:00 19 7 Noroeste 15 Norte 0 979.3 -2.2 38
2020-03-29 14:00:00 17.2 3 Oeste 11 Oeste 0 980.1 -2 43
2020-03-29 13:00:00 15.9 4 Sudeste 11 Nordeste 0 980.7 -1.6 51
2020-03-29 12:00:00 13.2 4 Nordeste 9 Nordeste 0 981.5 -0.7 56
2020-03-29 11:00:00 9.7 5 Nordeste 10 Norte 0 982.1 0.1 72
2020-03-29 10:00:00 6.3 7 Nordeste 10 Norte 0 982.3 0.4 80
2020-03-29 09:00:00 3.3 5 Nordeste 10 Nordeste 0 982.2 0.1 89
2020-03-29 08:00:00 3.1 4 Nordeste 8 Nordeste 0 982 -0.3 91
2020-03-29 07:00:00 3.5 3 Nordeste 10 Norte 0 981.9 -0.8 89
2020-03-29 06:00:00 4 7 Nordeste 12 Norte 0 982.1 -0.7 89
2020-03-29 05:00:00 5.1 8 Nordeste 14 Nordeste 0 982.3 -0.6 85
2020-03-29 03:00:00 6.6 8 Nordeste 13 Nordeste 0 982.8 -0.2 82
2020-03-29 01:00:00 7.5 7 Nordeste 10 Nordeste 0 982.9 -0.1 81
2020-03-29 00:00:00 8.8 4 Nordeste 7 Norte 0 983 0.2 78
2020-03-28 23:00:00 9.5 4 Nordeste 9 Nordeste 0 983 0.8 74
2020-03-28 22:00:00 11 3 Nordeste 6 Norte 0 983 1.3 68
2020-03-28 21:00:00 12.2 3 Sur 8 Oeste 0 982.8 1.4 63
2020-03-28 20:00:00 13.7 5 Oeste 13 Oeste 0 982.2 0.9 54
2020-03-28 19:00:00 15.7 7 Oeste 14 Oeste 0 981.7 0.2 48
2020-03-28 18:00:00 16.1 9 Oeste 20 Oeste 0 981.4 -0.6 48
2020-03-28 17:00:00 17 5 Oeste 13 Oeste 0 981.3 -1.2 36
2020-03-28 16:00:00 17.6 6 Sudoeste 15 Sudeste 0 981.5 -1.7 33
2020-03-28 15:00:00 18.1 6 Oeste 15 Oeste 0 982 -1.6 37
2020-03-28 14:00:00 16.6 4 Noroeste 12 Oeste 0 982.5 -1.3 41
2020-03-28 13:00:00 15.3 4 Sur 8 Oeste 0 983.2 -0.5 43
2020-03-28 12:00:00 12.6 3 Sur 8 Sudoeste 0 983.6 0.5 62
2020-03-28 11:00:00 9.3 2 Sur 8 Nordeste 0 983.8 0.9 70
2020-03-28 10:00:00 7.5 5 Nordeste 8 Nordeste 0 983.7 1.3 78
2020-03-28 09:00:00 6.7 3 Oeste 6 Norte 0 983.1 0.9 84
2020-03-28 08:00:00 6 4 Nordeste 6 Nordeste 0 982.9 0.9 84
2020-03-28 07:00:00 5.4 4 Nordeste 8 Nordeste 0 982.4 0.4 86
2020-03-28 06:00:00 6 5 Nordeste 7 Nordeste 0 982.2 0 84
2020-03-28 05:00:00 5.9 3 Oeste 11 Este 0 982 -0.3 84
2020-03-28 04:00:00 5.8 5 Nordeste 9 Este 0 982 -0.1 86
2020-03-28 03:00:00 6.2 4 Nordeste 9 Nordeste 0 982.2 0 87
2020-03-28 02:00:00 6.4 2 Este 8 Nordeste 0 982.3 0.4 86
2020-03-28 01:00:00 7.4 0 Calma 6 Nordeste 0 982.1 0.5 82
2020-03-28 00:00:00 7.6 4 Este 9 Este 0 982.2 0.9 81
2020-03-27 23:00:00 8.1 2 Sudoeste 5 Sudoeste 0 981.9 1.2 74
2020-03-27 22:00:00 8.2 4 Sur 8 Sudoeste 0.2 981.6 1.4 73
2020-03-27 21:00:00 8.8 4 Sur 8 Sur 0 981.3 1.7 69
2020-03-27 20:00:00 9.5 3 Sur 12 Sur 0 980.7 1.8 64
2020-03-27 19:00:00 10.7 6 Sudeste 15 Sur 0 980.2 1.5 53
2020-03-27 18:00:00 11.6 5 Este 19 Sudeste 0 979.6 0.9 48
2020-03-27 17:00:00 12.9 5 Nordeste 11 Este 0 978.9 -0.2 33
2020-03-27 16:00:00 12.8 6 Este 12 Nordeste 0 978.7 -0.9 37
2020-03-27 15:00:00 12.8 5 Sudeste 9 Norte 0 978.7 -1.3 35
2020-03-27 14:00:00 12.8 4 Nordeste 12 Nordeste 0 979.1 -1.2 41
2020-03-27 13:00:00 10.5 5 Nordeste 12 Norte 0 979.6 -0.8 50
2020-03-27 12:00:00 8.5 6 Nordeste 10 Nordeste 0 980 -0.2 57
2020-03-27 11:00:00 6.4 3 Nordeste 7 Nordeste 0 980.3 0.4 68
2020-03-27 10:00:00 2.5 3 Nordeste 6 Nordeste 0 980.4 0.7 80
2020-03-27 09:00:00 0.7 3 Nordeste 8 Nordeste 0 980.2 1 84
2020-03-27 08:00:00 -1 3 Nordeste 7 Nordeste 0 979.9 0.7 91
2020-03-27 07:00:00 -1.3 5 Nordeste 7 Nordeste 0 979.7 0.7 91
2020-03-27 06:00:00 -0.9 5 Nordeste 9 Nordeste 0 979.2 0.2 92
2020-03-27 05:00:00 -1.1 5 Nordeste 10 Nordeste 0 979.2 0.2 91
2020-03-27 04:00:00 -0.7 6 Nordeste 9 Norte 0 979 0 90
2020-03-27 03:00:00 0.1 4 Nordeste 6 Nordeste 0 979 0.2 89
2020-03-27 02:00:00 0.6 0 Calma 8 Nordeste 0 979 0.5 87
2020-03-27 01:00:00 1.4 4 Nordeste 8 Nordeste 0 979 0.7 87
2020-03-27 00:00:00 2.2 4 Nordeste 9 Nordeste 0 978.8 0.7 83
2020-03-26 23:00:00 3 3 Nordeste 8 Nordeste 0 978.5 1.1 79
2020-03-26 22:00:00 4.7 4 Nordeste 7 Nordeste 0 978.3 1.6 73
2020-03-26 21:00:00 5.9 3 Sudeste 17 Nordeste 0 978.1 2.3 66
2020-03-26 20:00:00 6.9 7 Nordeste 18 Nordeste 0 977.4 2.3 62
2020-03-26 19:00:00 8 10 Nordeste 24 Nordeste 0 976.7 2.4 59
2020-03-26 18:00:00 9 3 Sudeste 20 Este 0 975.8 1.7 56
2020-03-26 17:00:00 9.8 7 Este 33 Nordeste 0 975.1 0.9 53
2020-03-26 16:00:00 11.2 16 Nordeste 29 Nordeste 0 974.3 0.4 47
2020-03-26 15:00:00 10.6 15 Este 29 Este 0 974.1 0.4 45
2020-03-26 14:00:00 9.9 8 Este 27 Nordeste 0 974.2 0.2 52
2020-03-26 13:00:00 10.1 14 Nordeste 29 Nordeste 0 973.9 -0.4 51
2020-03-26 12:00:00 10.6 3 Oeste 11 Norte 0 973.7 -0.8 57
2020-03-26 11:00:00 7.7 4 Oeste 10 Noroeste 0 974 -0.2 65
2020-03-26 10:00:00 5.6 4 Norte 10 Norte 0 974.3 0.1 72
2020-03-26 09:00:00 1.5 5 Nordeste 12 Este 0 974.5 -0.1 88
2020-03-26 08:00:00 0.5 5 Nordeste 9 Norte 0 974.2 -0.9 90
2020-03-26 07:00:00 -0.1 6 Nordeste 12 Nordeste 0 974.2 -1.6 91
2020-03-26 06:00:00 0.3 10 Nordeste 17 Nordeste 0 974.6 -1.9 90
2020-03-26 05:00:00 0.9 8 Nordeste 12 Este 0 975.1 -2.2 89
2020-03-26 04:00:00 1.8 5 Nordeste 9 Este 0 975.8 -2.1 88
2020-03-26 03:00:00 2.2 3 Norte 8 Nordeste 0 976.5 -2.1 88
2020-03-26 02:00:00 3 4 Nordeste 9 Nordeste 0 977.3 -2 84
2020-03-26 01:00:00 3 2 Sudeste 7 Oeste 0 977.9 -1.9 84
2020-03-26 00:00:00 4.2 4 Sudoeste 10 Oeste 0 978.6 -1.2 78
2020-03-25 23:00:00 6.2 4 Oeste 9 Oeste 0 979.3 -0.5 70
2020-03-25 22:00:00 7.7 4 Sudoeste 9 Sur 0 979.8 -0.2 62
2020-03-25 21:00:00 8.1 6 Sur 14 Sur 0 979.8 -0.3 60
2020-03-25 20:00:00 8.3 7 Sur 15 Sudeste 0 979.8 -0.5 57
2020-03-25 19:00:00 8.9 9 Sur 19 Sur 0 980 -0.5 55
2020-03-25 18:00:00 9.5 9 Sur 21 Sur 0 980.1 -1.1 55
2020-03-25 17:00:00 9.4 9 Sur 21 Sudoeste 0 980.3 -1.7 57
2020-03-25 16:00:00 11.1 9 Sur 15 Sudoeste 0 980.5 -2.2 46
2020-03-25 15:00:00 11.4 5 Sur 20 Oeste 0 981.2 -2.2 47
2020-03-25 14:00:00 10.3 5 Oeste 17 Oeste 0 982 -2 49
2020-03-25 13:00:00 10 5 Noroeste 12 Oeste 0 982.7 -1.6 54
2020-03-25 12:00:00 7.7 5 Noroeste 12 Noroeste 0 983.4 -1.1 61
2020-03-25 11:00:00 6.3 8 Noroeste 14 Oeste 0 984 -0.1 69
2020-03-25 10:00:00 5.9 7 Oeste 14 Oeste 0 984.3 0.6 71
2020-03-25 09:00:00 4.7 6 Noroeste 26 Este 0 984.5 1 74
2020-03-25 08:00:00 5.4 13 Nordeste 22 Nordeste 0 984.1 0.5 68
2020-03-25 07:00:00 5.7 8 Nordeste 15 Norte 0 983.7 0 66
2020-03-25 06:00:00 5.9 9 Nordeste 21 Nordeste 0 983.5 -0.6 69
2020-03-25 05:00:00 6.4 13 Nordeste 26 Nordeste 0 983.6 -1 63
2020-03-25 04:00:00 6.9 7 Nordeste 13 Nordeste 0 983.7 -1.1 67
2020-03-25 03:00:00 7 3 Este 7 Sudeste 0 984.1 -1 68
2020-03-25 02:00:00 7.1 3 Este 8 Nordeste 0 984.6 -0.7 68
2020-03-25 01:00:00 7 4 Este 8 Sudeste 0 984.8 -0.3 71
2020-03-25 00:00:00 7.7 5 Este 10 Nordeste 0 985.1 0.1 68
2020-03-24 23:00:00 8.2 3 Sudeste 9 Este 0 985.3 0.8 67
2020-03-24 22:00:00 8.4 6 Sudeste 14 Sudeste 0 985.1 1 67
2020-03-24 21:00:00 8.9 5 Este 14 Este 0 985 1.2 67
2020-03-24 20:00:00 9.4 5 Este 13 Nordeste 0 984.5 0.8 68
2020-03-24 19:00:00 10.3 4 Este 9 Este 0 984.1 0.3 67
2020-03-24 18:00:00 11 6 Este 13 Este 0 983.8 -0.3 60
2020-03-24 17:00:00 11.7 6 Sur 24 Sudeste 0 983.7 -0.8 58
2020-03-24 16:00:00 12.3 10 Sur 27 Sudoeste 0 983.8 -1.3 56
2020-03-24 15:00:00 13 13 Sur 23 Sudoeste 0 984.1 -1 57
2020-03-24 14:00:00 14.5 13 Sur 22 Sur 0 984.5 -1.2 57
2020-03-24 13:00:00 13.5 11 Sur 22 Sur 0 985.1 -0.9 57
2020-03-24 12:00:00 13.5 12 Sur 18 Sur 0 985.1 -1 61
2020-03-24 11:00:00 13.2 6 Nordeste 13 Nordeste 0 985.7 -0.5 61
2020-03-24 10:00:00 11.4 6 Nordeste 10 Nordeste 0 986 0.1 67
2020-03-24 09:00:00 10.8 4 Nordeste 7 Nordeste 0 986.1 0.1 73
2020-03-24 08:00:00 8.5 2 Este 5 Este 0 986.2 0.2 87
2020-03-24 07:00:00 8.6 4 Sudeste 11 Nordeste 0 985.9 -0.2 83
2020-03-24 06:00:00 9.4 5 Nordeste 9 Nordeste 0 986 -0.3 81
2020-03-24 05:00:00 9.5 3 Este 12 Nordeste 0 986 -0.4 80
2020-03-24 04:00:00 9.4 5 Este 11 Este 0 986.1 -0.3 87
2020-03-24 03:00:00 9.9 2 Sudeste 5 Sudeste 0 986.3 -0.2 85
2020-03-24 02:00:00 9.8 0 Calma 5 Nordeste 0 986.4 -0.2 86
2020-03-24 01:00:00 10.1 0 Calma 9 Nordeste 0 986.4 0.1 85
2020-03-24 00:00:00 10.5 4 Nordeste 9 Nordeste 0 986.5 0.8 84
2020-03-23 23:00:00 10.5 5 Nordeste 12 Este 0 986.6 1.2 83
2020-03-23 22:00:00 10.6 8 Este 13 Nordeste 0 986.3 1.3 81
2020-03-23 21:00:00 10.9 6 Nordeste 16 Nordeste 0 985.7 1.5 80
2020-03-23 20:00:00 12.1 10 Nordeste 17 Nordeste 0 985.4 1.1 75
2020-03-23 19:00:00 12.7 2 Sudoeste 9 Sudoeste 0 985 0.5 85
2020-03-23 18:00:00 13.4 3 Este 10 Nordeste 0 984.2 -0.5 76
2020-03-23 17:00:00 13.4 6 Nordeste 10 Nordeste 0.2 984.3 -1.1 81
2020-03-23 16:00:00 13.6 3 Norte 12 Nordeste 0 984.5 -1.2 77
2020-03-23 15:00:00 14.2 7 Nordeste 13 Nordeste 0 984.7 -0.9 75
2020-03-23 14:00:00 12.8 5 Norte 10 Nordeste 0.4 985.4 0 84
2020-03-23 13:00:00 12.2 5 Nordeste 8 Nordeste 0.8 985.7 0.7 90
2020-03-23 12:00:00 11.5 3 Norte 8 Norte 1 985.6 1.2 91
2020-03-23 11:00:00 10.7 5 Nordeste 13 Norte 1 985.4 1.6 91
2020-03-23 10:00:00 10.1 2 Este 5 Nordeste 1 985 1.9 92
2020-03-23 09:00:00 9.8 4 Nordeste 5 Nordeste 0.8 984.4 1.7 91
2020-03-23 08:00:00 9.5 3 Nordeste 5 Nordeste 0.2 983.8 1.4 93
2020-03-23 07:00:00 9.6 3 Nordeste 6 Nordeste 0 983.1 0.8 93
2020-03-23 06:00:00 9.5 2 Nordeste 6 Nordeste 0 982.7 0.4 93
2020-03-23 05:00:00 9.6 5 Nordeste 8 Nordeste 0.6 982.4 0.2 92
2020-03-23 04:00:00 9.8 3 Nordeste 6 Este 1.2 982.3 0 91
2020-03-23 03:00:00 9.9 3 Nordeste 9 Nordeste 0 982.3 -0.1 88
2020-03-23 02:00:00 10.2 5 Nordeste 11 Nordeste 0 982.2 -0.2 83
2020-03-23 01:00:00 10.6 8 Nordeste 12 Nordeste 0 982.3 0.3 81
2020-03-23 00:00:00 11.1 6 Nordeste 12 Nordeste 0 982.4 1 80
2020-03-22 23:00:00 11.4 7 Este 14 Nordeste 0 982.4 1.7 80
2020-03-22 22:00:00 11.7 2 Nordeste 8 Sudeste 0 982 2.1 78
2020-03-22 21:00:00 12.4 4 Sur 14 Sur 0 981.4 2.2 76
2020-03-22 20:00:00 12.9 7 Sur 18 Sur 0 980.7 2.1 73
2020-03-22 19:00:00 13.8 6 Sur 19 Sudeste 0 979.9 1.4 73
2020-03-22 18:00:00 15.1 8 Sur 21 Sur 0 979.2 0.5 61
2020-03-22 17:00:00 15.1 10 Sur 23 Sur 0 978.6 -0.4 63
2020-03-22 16:00:00 15.4 10 Sur 23 Sur 0 978.5 -0.8 60
2020-03-22 15:00:00 15.7 9 Sur 24 Sur 0 978.7 -0.7 61
2020-03-22 14:00:00 16.1 7 Sudoeste 16 Sur 0 979 -0.4 55
2020-03-22 13:00:00 15 10 Sur 21 Sudoeste 0 979.3 0.1 61
2020-03-22 12:00:00 15.3 5 Oeste 10 Noroeste 0 979.4 0.4 66
2020-03-22 11:00:00 13 3 Sur 7 Sudoeste 0 979.4 0.7 72
2020-03-22 10:00:00 10.9 2 Noroeste 8 Nordeste 0 979.2 0.9 78
2020-03-22 09:00:00 7.8 2 Nordeste 7 Norte 0 979 1 87
2020-03-22 08:00:00 6.6 2 Norte 5 Noroeste 0 978.7 0.8 90
2020-03-22 07:00:00 6.1 0 Calma 4 Oeste 0 978.3 0.2 91
2020-03-22 06:00:00 6.6 2 Sudoeste 6 Oeste 0 978 -0.4 89
2020-03-22 05:00:00 7.4 4 Oeste 6 Oeste 0 977.9 -0.8 89
2020-03-22 04:00:00 8.2 0 Calma 3 Oeste 0 978.1 -0.8 87
2020-03-22 03:00:00 9.1 0 Calma 8 Oeste 0 978.4 -0.7 84
2020-03-22 02:00:00 9.6 4 Sudoeste 7 Oeste 0 978.7 -0.5 82
2020-03-22 01:00:00 10 4 Oeste 6 Oeste 0 978.9 -0.1 83
2020-03-22 00:00:00 10.5 0 Calma 5 Oeste 0 979.1 0.3 85
2020-03-21 23:00:00 11.1 4 Oeste 15 Sudoeste 0 979.2 0.9 83
2020-03-21 22:00:00 11.7 7 Sur 15 Sur 0 979 1.4 80
2020-03-21 21:00:00 12 6 Sur 13 Sudoeste 0 978.8 1.5 75
2020-03-21 20:00:00 12.9 8 Sur 20 Sudeste 0 978.3 0.9 68
2020-03-21 19:00:00 14.4 10 Sur 23 Sur 0 977.6 -0.2 54
2020-03-21 18:00:00 15.4 14 Sur 26 Sudoeste 0 977.3 -1 49
2020-03-21 17:00:00 16.1 7 Sudoeste 25 Oeste 0 977.4 -1.7 46
2020-03-21 16:00:00 15.9 10 Sur 23 Sudoeste 0 977.8 -2 46
2020-03-21 15:00:00 16.7 6 Sudoeste 19 Oeste 0 978.3 -2.3 43
2020-03-21 14:00:00 16.6 9 Sudoeste 20 Sur 0 979.1 -2.1 42
2020-03-21 13:00:00 14.9 6 Oeste 11 Sudoeste 0 979.8 -2 45
2020-03-21 12:00:00 12.7 4 Oeste 9 Sudoeste 0 980.6 -1.3 56
2020-03-21 11:00:00 9.9 4 Nordeste 8 Nordeste 0 981.2 -0.7 67
2020-03-21 10:00:00 7.1 0 Calma 7 Norte 0 981.8 0 76
2020-03-21 09:00:00 4 2 Noroeste 6 Norte 0 981.9 -0.1 87
2020-03-21 08:00:00 2 3 Nordeste 5 Norte 0 981.9 -0.3 93
2020-03-21 07:00:00 1.9 0 Calma 5 Norte 0 981.8 -0.7 93
2020-03-21 06:00:00 2.1 3 Nordeste 8 Norte 0 982 -1 93
2020-03-21 05:00:00 2.8 4 Nordeste 7 Nordeste 0 982.2 -1 92
2020-03-21 04:00:00 3.4 2 Norte 6 Norte 0 982.5 -1.1 91
2020-03-21 03:00:00 4.1 0 Calma 4 Oeste 0 983 -1 89
2020-03-21 02:00:00 4.8 0 Calma 7 Norte 0 983.2 -1 88
2020-03-21 01:00:00 5.6 3 Nordeste 5 Nordeste 0 983.6 -0.7 87
2020-03-21 00:00:00 6.5 0 Calma 5 Norte 0 984 -0.2 84
2020-03-20 23:00:00 7.5 3 Nordeste 5 Nordeste 0 984.2 0.3 80
2020-03-20 22:00:00 8.9 2 Noroeste 5 Oeste 0 984.3 0.3 75
2020-03-20 21:00:00 10.8 5 Sudoeste 11 Sur 0 984.2 0.4 68
2020-03-20 20:00:00 12 6 Sur 14 Sur 0 983.9 0.2 60
2020-03-20 19:00:00 13.3 7 Sur 15 Sudeste 0 984 0.4 51
2020-03-20 18:00:00 14.7 9 Sur 32 Sudoeste 0 983.8 -0.3 49
2020-03-20 17:00:00 15.8 13 Sur 32 Sudoeste 0 983.7 -1.1 44
2020-03-20 16:00:00 17.4 12 Sudoeste 24 Sudoeste 0 983.6 -2 35
2020-03-20 15:00:00 16.9 11 Sudoeste 23 Sudoeste 0 984.1 -2.1 45
2020-03-20 14:00:00 16.5 6 Sur 23 Sudoeste 0 984.8 -2.2 45
2020-03-20 13:00:00 14.9 10 Sur 17 Sur 0 985.6 -1.6 50
2020-03-20 12:00:00 11.2 3 Sudoeste 10 Noroeste 0 986.2 -0.7 67
2020-03-20 11:00:00 7.6 4 Sudoeste 8 Sudoeste 0 987 0.5 84
2020-03-20 10:00:00 4.5 5 Nordeste 9 Norte 0 987.2 0.9 95
2020-03-20 09:00:00 3.7 4 Norte 9 Norte 0 986.9 0.6 96
2020-03-20 08:00:00 3.8 4 Nordeste 6 Nordeste 0 986.5 0.2 96
2020-03-20 07:00:00 3.6 4 Nordeste 7 Nordeste 0 986.3 -0.2 96
2020-03-20 06:00:00 3.4 5 Nordeste 8 Norte 0 986.3 -0.6 95
2020-03-20 05:00:00 3.3 5 Nordeste 6 Nordeste 0 986.3 -0.9 94
2020-03-20 04:00:00 3.8 2 Norte 5 Nordeste 0 986.5 -0.7 93
2020-03-20 03:00:00 4.1 3 Oeste 5 Oeste 0 986.9 -0.5 92
2020-03-20 02:00:00 4.9 2 Sudoeste 6 Norte 0 987.2 -0.3 90
2020-03-20 01:00:00 5.9 3 Nordeste 5 Nordeste 0 987.2 -0.2 90
2020-03-20 00:00:00 6.8 3 Nordeste 4 Norte 0 987.4 0.1 88
2020-03-19 23:00:00 7.8 2 Sudoeste 6 Oeste 0 987.5 0.5 84
2020-03-19 22:00:00 9.5 2 Noroeste 13 Sudoeste 0 987.4 0.7 78
2020-03-19 21:00:00 10.6 8 Sur 21 Sudoeste 0 987.3 0.7 71
2020-03-19 20:00:00 11.5 11 Sur 22 Sudoeste 0 987 0.6 67
2020-03-19 19:00:00 12.8 12 Sur 24 Sur 0 986.7 -0.1 66
2020-03-19 18:00:00 14.1 14 Sur 28 Sudoeste 0 986.6 -0.7 60
2020-03-19 17:00:00 15.6 12 Sur 27 Sudoeste 0 986.4 -1.6 55
2020-03-19 16:00:00 17.1 15 Sur 30 Oeste 0 986.8 -1.8 49
2020-03-19 15:00:00 17.3 13 Sur 29 Sudoeste 0 987.3 -2 51
2020-03-19 14:00:00 17.4 11 Sur 21 Sur 0 988 -2 49
2020-03-19 13:00:00 16.8 10 Sur 20 Sudeste 0 988.6 -1.5 53
2020-03-19 12:00:00 14.6 5 Sur 9 Sur 0 989.3 -0.8 59
2020-03-19 11:00:00 11 4 Oeste 7 Oeste 0 990 0 75
2020-03-19 10:00:00 8.5 3 Nordeste 6 Norte 0 990.1 0.2 81
2020-03-19 09:00:00 4.8 2 Sur 7 Nordeste 0 990.1 0.2 95
2020-03-19 08:00:00 3.8 4 Nordeste 8 Nordeste 0 990 0.2 94
2020-03-19 07:00:00 3.9 3 Nordeste 5 Nordeste 0 989.9 -0.2 93
2020-03-19 06:00:00 4.4 2 Nordeste 5 Norte 0 989.9 -0.6 94
2020-03-19 05:00:00 4.7 3 Nordeste 6 Norte 0 989.8 -1.1 93
2020-03-19 04:00:00 5.4 0 Calma 5 Norte 0 990.1 -0.8 93
2020-03-19 03:00:00 6 3 Nordeste 6 Norte 0 990.5 -0.6 92
2020-03-19 02:00:00 6.6 3 Nordeste 6 Nordeste 0 990.9 -0.2 91
2020-03-19 01:00:00 7.3 0 Calma 3 Noroeste 0 990.9 -0.2 89
2020-03-19 00:00:00 8.3 0 Calma 3 Norte 0 991.1 0.2 88
2020-03-18 23:00:00 9.3 2 Nordeste 6 Oeste 0 991.1 0.4 84
2020-03-18 22:00:00 10.6 3 Oeste 9 Sudoeste 0 991.1 0.6 78
2020-03-18 21:00:00 12.2 4 Sudoeste 16 Sur 0 990.9 0.6 67
2020-03-18 20:00:00 13.6 8 Sur 14 Sur 0 990.7 0.2 59
2020-03-18 19:00:00 15 6 Sur 14 Sudoeste 0 990.5 -0.3 58
2020-03-18 18:00:00 16.2 8 Sur 18 Sur 0 990.3 -1 54
2020-03-18 17:00:00 17 9 Sur 25 Sudoeste 0 990.5 -1.6 52
2020-03-18 16:00:00 18.1 9 Sudoeste 21 Sur 0 990.8 -2.2 49
2020-03-18 15:00:00 17.9 3 Norte 10 Nordeste 0 991.3 -2.4 46
2020-03-18 14:00:00 17.1 3 Sudeste 9 Oeste 0 992.1 -2 52
2020-03-18 13:00:00 15 5 Sur 9 Sur 0 993 -1.2 54
2020-03-18 12:00:00 13.1 3 Nordeste 8 Nordeste 0 993.7 -0.1 73
2020-03-18 11:00:00 10.2 4 Nordeste 9 Nordeste 0 994.1 0.4 81
2020-03-18 10:00:00 8.6 3 Nordeste 6 Nordeste 0 994.2 0.7 88
2020-03-18 09:00:00 7.5 4 Nordeste 6 Oeste 0 993.8 0.2 92
2020-03-18 08:00:00 6.8 0 Calma 4 Nordeste 0 993.7 0 93
2020-03-18 07:00:00 6.8 3 Norte 5 Nordeste 0 993.5 -0.5 92
2020-03-18 06:00:00 7.4 3 Nordeste 5 Nordeste 0 993.6 -0.7 92
2020-03-18 05:00:00 7.8 3 Nordeste 5 Nordeste 0 993.7 -0.8 92
2020-03-18 04:00:00 8 3 Nordeste 4 Nordeste 0 994 -0.7 91
2020-03-18 03:00:00 8.4 2 Oeste 6 Nordeste 0 994.3 -0.7 90
2020-03-18 02:00:00 8.9 5 Nordeste 8 Nordeste 0 994.5 -0.5 89
2020-03-18 01:00:00 9.3 6 Nordeste 14 Este 0 994.7 -0.2 88
2020-03-18 00:00:00 10.1 5 Nordeste 10 Nordeste 0 995 0.6 87
2020-03-17 23:00:00 11.4 4 Nordeste 8 Norte 0 995 1.3 81
2020-03-17 22:00:00 12.2 2 Norte 5 Oeste 0 994.9 1.6 73
2020-03-17 21:00:00 12.7 2 Norte 7 Sur 0 994.4 1.3 69
2020-03-17 20:00:00 13.7 6 Sur 14 Sur 0 993.7 0.6 62
2020-03-17 19:00:00 15.1 6 Sur 11 Sur 0 993.3 0 66
2020-03-17 18:00:00 16.1 5 Nordeste 14 Norte 0 993.1 -0.5 62
2020-03-17 17:00:00 16 4 Norte 10 Nordeste 0 993.1 -0.8 66
2020-03-17 16:00:00 16.2 5 Norte 11 Nordeste 0 993.3 -0.6 65
2020-03-17 15:00:00 15.4 3 Sudoeste 10 Sur 0 993.6 0 68
2020-03-17 14:00:00 14.6 6 Sur 11 Sur 0 993.9 0.6 70
2020-03-17 13:00:00 15.4 5 Nordeste 10 Nordeste 0 993.9 1 65
2020-03-17 12:00:00 14.2 3 Norte 6 Nordeste 0 993.6 1.2 71
2020-03-17 11:00:00 13.1 0 Calma 8 Nordeste 0 993.3 1.4 74
2020-03-17 10:00:00 12.1 5 Nordeste 12 Nordeste 0 992.9 1.6 75
2020-03-17 09:00:00 12 7 Nordeste 12 Nordeste 0 992.4 1.9 72
2020-03-17 08:00:00 10.9 2 Nordeste 9 Este 0 991.9 1.8 80
2020-03-17 07:00:00 11.5 7 Nordeste 13 Nordeste 0 991.3 1.2 72
2020-03-17 06:00:00 10.4 2 Nordeste 9 Nordeste 0 990.5 0.7 82
2020-03-17 05:00:00 10.8 6 Nordeste 16 Norte 0 990.1 0.2 79
2020-03-17 04:00:00 11 8 Nordeste 14 Nordeste 0 990.1 0.6 75
2020-03-17 03:00:00 10.8 8 Nordeste 21 Nordeste 0 989.8 0.4 78
2020-03-17 02:00:00 10.9 10 Nordeste 17 Nordeste 0 989.9 1.1 80
2020-03-17 01:00:00 11.3 9 Nordeste 14 Nordeste 0 989.5 1.5 83
2020-03-17 00:00:00 11.1 6 Nordeste 13 Nordeste 0 989.4 2.4 89
2020-03-16 23:00:00 10.7 4 Nordeste 8 Nordeste 0.2 988.8 2.9 92
2020-03-16 22:00:00 10.7 3 Nordeste 13 Nordeste 0 988 2.9 92
2020-03-16 21:00:00 10.6 5 Nordeste 10 Nordeste 0.6 987 2.3 92
2020-03-16 20:00:00 10.6 5 Nordeste 14 Nordeste 0 985.9 1.5 91
2020-03-16 19:00:00 10.5 6 Nordeste 19 Nordeste 4 985.1 1.4 92
2020-03-16 18:00:00 10.5 8 Norte 15 Norte 7.4 984.7 1.8 94
2020-03-16 17:00:00 10.4 4 Noroeste 13 Norte 5.4 984.4 1.8 93
2020-03-16 16:00:00 10.6 4 Norte 15 Norte 8.6 983.7 1.4 93
2020-03-16 15:00:00 10.5 5 Sudoeste 17 Nordeste 8.2 982.9 0.8 92
2020-03-16 14:00:00 10.9 11 Nordeste 26 Este 1.6 982.6 0.4 89
2020-03-16 13:00:00 13.1 8 Sudeste 30 Este 0 982.3 0.5 65
2020-03-16 12:00:00 13.3 11 Este 30 Nordeste 0 982.1 1 66
2020-03-16 11:00:00 12.7 11 Este 31 Sudeste 0 982.2 1.3 66
2020-03-16 10:00:00 12 6 Nordeste 25 Este 0 981.8 1.6 69
2020-03-16 09:00:00 11.3 9 Nordeste 17 Nordeste 0 981.1 1 69
2020-03-16 08:00:00 11.2 4 Sudeste 18 Nordeste 0 980.9 0.8 63
2020-03-16 07:00:00 11.2 9 Nordeste 18 Nordeste 0 980.2 -0.4 68
2020-03-16 06:00:00 11.3 9 Nordeste 14 Nordeste 0 980.1 -1.1 76
2020-03-16 05:00:00 11.3 5 Nordeste 13 Nordeste 0 980.1 -1.5 85
2020-03-16 04:00:00 11.7 0 Calma 7 Nordeste 0 980.6 -1.1 79
2020-03-16 03:00:00 11.9 4 Sudeste 14 Sudeste 0 981.2 -1.1 80
2020-03-16 02:00:00 12 8 Sur 17 Sudeste 0 981.6 -0.8 79
2020-03-16 01:00:00 11.6 0 Calma 9 Sur 0 981.7 -0.5 80
2020-03-16 00:00:00 11.9 6 Sur 15 Sur 0 982.3 0.4 76
2020-03-15 23:00:00 11.9 8 Sur 16 Sur 0 982.4 0.8 80
2020-03-15 22:00:00 12 7 Sur 15 Sudeste 0 982.2 0.8 80
2020-03-15 21:00:00 11.9 6 Sur 16 Sudeste 0 981.9 0.7 78
2020-03-15 20:00:00 12.6 7 Sur 16 Sur 0 981.6 0.3 72
2020-03-15 19:00:00 13.4 9 Sur 19 Sur 0 981.4 -0.2 65
2020-03-15 18:00:00 14.9 11 Sur 24 Sur 0 981.2 -1 61
2020-03-15 17:00:00 16.4 13 Sur 27 Sudoeste 0 981.3 -1.7 57
2020-03-15 16:00:00 17.2 9 Sur 24 Sur 0 981.6 -2.4 54
2020-03-15 15:00:00 16.4 10 Sur 22 Sudoeste 0 982.2 -2.8 57
2020-03-15 14:00:00 16.5 5 Sudoeste 17 Sudoeste 0 983 -2.4 57
2020-03-15 13:00:00 15.7 5 Sudoeste 9 Sudoeste 0 984 -1.5 59
2020-03-15 12:00:00 12.5 3 Nordeste 9 Nordeste 0 985 -0.2 71
2020-03-15 11:00:00 9.6 2 Oeste 6 Oeste 0 985.4 0.5 84
2020-03-15 10:00:00 8.3 4 Nordeste 8 Norte 0 985.5 0.6 92
2020-03-15 09:00:00 7.5 3 Nordeste 7 Nordeste 0 985.2 0.2 93
2020-03-15 08:00:00 6.6 2 Noroeste 6 Oeste 0 984.9 -0.3 92
2020-03-15 07:00:00 6.4 4 Oeste 6 Oeste 0 984.9 -0.7 90
2020-03-15 06:00:00 6.3 3 Oeste 4 Oeste 0 985 -1.1 89
2020-03-15 05:00:00 5.7 3 Oeste 6 Oeste 0 985.2 -1 89
2020-03-15 04:00:00 6.4 0 Calma 5 Oeste 0 985.6 -0.6 89
2020-03-15 03:00:00 6.6 3 Oeste 7 Oeste 0 986.1 -0.1 89
2020-03-15 02:00:00 6.8 3 Oeste 5 Oeste 0 986.2 -0.1 89
2020-03-15 01:00:00 7.9 0 Calma 6 Norte 0 986.2 0.2 88
2020-03-15 00:00:00 8.5 3 Oeste 6 Oeste 0 986.2 0.6 84
2020-03-14 23:00:00 9.6 4 Oeste 6 Oeste 0 986.3 1 80
2020-03-14 22:00:00 11.3 3 Sudoeste 9 Sur 0 986 1.3 79
2020-03-14 21:00:00 12.6 6 Sur 20 Sudoeste 0 985.6 1.2 77
2020-03-14 20:00:00 13.6 8 Sur 19 Sur 0 985.3 1.2 77
2020-03-14 19:00:00 14.7 10 Sur 24 Sudoeste 0 984.7 0.3 73
2020-03-14 18:00:00 15.4 14 Sur 27 Sur 0 984.4 -0.4 70
2020-03-14 17:00:00 17.6 4 Sur 13 Sudeste 0 984.1 -1.5 54
2020-03-14 16:00:00 18.5 7 Sur 13 Sur 0 984.4 -1.6 52
2020-03-14 15:00:00 17.4 6 Nordeste 12 Nordeste 0 984.8 -1.6 56
2020-03-14 14:00:00 15.6 5 Norte 11 Nordeste 0 985.6 -1 63
2020-03-14 13:00:00 15 5 Nordeste 14 Nordeste 0 986 -0.4 66
2020-03-14 12:00:00 13.7 4 Norte 12 Norte 0 986.4 0.4 67
2020-03-14 11:00:00 12.4 6 Oeste 19 Oeste 0 986.6 1.4 70
2020-03-14 10:00:00 11.2 13 Oeste 23 Noroeste 0 986.4 1.4 75
2020-03-14 09:00:00 10.7 3 Este 9 Noroeste 0 986 1.6 83
2020-03-14 08:00:00 10.2 3 Norte 9 Oeste 0 985.2 0.9 85
2020-03-14 07:00:00 9.3 2 Noroeste 6 Oeste 0 985 0.9 87
2020-03-14 06:00:00 8.8 2 Sudeste 6 Oeste 0 984.4 -0.2 88
2020-03-14 05:00:00 8.7 0 Calma 7 Oeste 0 984.3 -0.2 89
2020-03-14 04:00:00 8.5 2 Oeste 6 Este 0 984.1 -0.4 90
2020-03-14 03:00:00 8.7 3 Nordeste 5 Oeste 0 984.6 0.1 91
2020-03-14 02:00:00 9.9 2 Nordeste 6 Este 0 984.5 0 91
2020-03-14 01:00:00 11 2 Sudeste 15 Sur 0 984.5 0.4 87
2020-03-14 00:00:00 11.5 5 Sudoeste 10 Sur 0 984.5 0.5 86
2020-03-13 23:00:00 12.1 3 Oeste 7 Sudoeste 0 984.5 0.7 82
2020-03-13 22:00:00 13.5 5 Sudoeste 9 Sudoeste 0 984.1 0.6 75
2020-03-13 21:00:00 14.4 3 Sudoeste 7 Nordeste 0 984 0.6 70
2020-03-13 20:00:00 15.4 3 Norte 9 Norte 0 983.8 0.1 64
2020-03-13 19:00:00 15.9 3 Noroeste 17 Oeste 0 983.5 -0.3 63
2020-03-13 18:00:00 16.3 7 Noroeste 18 Oeste 0 983.4 -0.6 62
2020-03-13 17:00:00 16.8 7 Oeste 26 Oeste 0 983.7 -0.9 61
2020-03-13 16:00:00 18 12 Oeste 22 Oeste 0 983.8 -1.8 56
2020-03-13 15:00:00 19.6 9 Sudoeste 18 Sudoeste 0 984 -2 45
2020-03-13 14:00:00 19.8 5 Sudoeste 13 Sur 0 984.6 -1.6 51
2020-03-13 13:00:00 18.8 8 Sur 15 Sur 0 985.6 -0.8 50
2020-03-13 12:00:00 16.8 4 Este 9 Este 0 986 -0.1 59
2020-03-13 11:00:00 15.1 2 Este 9 Norte 0 986.2 0.6 67
2020-03-13 10:00:00 12.4 3 Norte 10 Nordeste 0 986.4 1.2 76
2020-03-13 09:00:00 9.8 4 Norte 7 Nordeste 0 986.1 1.2 85
2020-03-13 08:00:00 8.2 2 Oeste 6 Oeste 0 985.6 1.2 89
2020-03-13 07:00:00 8.9 2 Norte 7 Sudeste 0 985.2 0.4 89
2020-03-13 06:00:00 9 2 Este 8 Noroeste 0 984.9 0.2 89
2020-03-13 05:00:00 9.2 3 Noroeste 12 Sudeste 0 984.4 -0.4 88
2020-03-13 04:00:00 9.8 3 Este 6 Norte 0 984.8 -0.6 86
2020-03-13 03:00:00 10.1 4 Oeste 8 Oeste 0 984.7 -1.1 83
2020-03-13 02:00:00 10.8 0 Calma 5 Norte 0 984.8 -0.1 83
2020-03-13 01:00:00 12.2 2 Sur 7 Este 0 985.4 1.1 81
2020-03-13 00:00:00 13.2 0 Calma 17 Sudoeste 0 985.8 2 79
2020-03-12 23:00:00 14.3 7 Sur 22 Sudoeste 0 984.9 1.5 75
2020-03-12 22:00:00 15.6 7 Sur 17 Sudeste 0 984.3 1.4 64
2020-03-12 21:00:00 16.6 5 Sur 21 Sudoeste 0 983.8 1.3 59
2020-03-12 20:00:00 17.4 15 Sur 28 Sur 0 983.4 0.6 54
2020-03-12 19:00:00 18.7 12 Sur 23 Sur 0 982.9 -0.3 56
2020-03-12 18:00:00 22 10 Sur 23 Sur 0 982.5 -1.6 43
2020-03-12 17:00:00 23.9 12 Sur 23 Sudoeste 0 982.8 -2.2 35
2020-03-12 16:00:00 24.1 12 Sur 24 Sudoeste 0 983.2 -2.7 33
2020-03-12 15:00:00 23.6 11 Sur 24 Sudoeste 0 984.1 -2.5 33
2020-03-12 14:00:00 22.9 13 Sur 25 Sur 0 985 -2.2 37
2020-03-12 13:00:00 21 5 Sur 10 Sudoeste 0 985.9 -1.8 43
2020-03-12 12:00:00 17.4 4 Oeste 8 Sudoeste 0 986.6 -1.4 53
2020-03-12 11:00:00 13.9 3 Sudoeste 8 Sudoeste 0 987.2 -0.4 59
2020-03-12 10:00:00 10.6 3 Noroeste 8 Nordeste 0 987.7 0.5 70
2020-03-12 09:00:00 7.6 6 Nordeste 10 Nordeste 0 988 1 81
2020-03-12 08:00:00 5.8 2 Noroeste 5 Norte 0 987.6 0.6 87
2020-03-12 07:00:00 5.9 3 Norte 8 Nordeste 0 987.2 0 87
2020-03-12 06:00:00 6 3 Nordeste 7 Norte 0 987 -0.6 88
2020-03-12 05:00:00 6.6 5 Nordeste 9 Nordeste 0 987 -1 88
2020-03-12 04:00:00 7.5 5 Nordeste 6 Nordeste 0 987.2 -1 84
2020-03-12 03:00:00 7.9 0 Calma 5 Oeste 0 987.6 -0.7 82
2020-03-12 02:00:00 9.3 2 Noroeste 7 Norte 0 988 -0.2 75
2020-03-12 01:00:00 9.6 2 Nordeste 7 Norte 0 988.2 0.2 79
2020-03-12 00:00:00 10.4 4 Norte 8 Norte 0 988.3 0.7 80
2020-03-11 23:00:00 11.5 0 Calma 4 Oeste 0 988.2 1 72
2020-03-11 22:00:00 13.3 2 Oeste 13 Sur 0 988 1.2 73
2020-03-11 21:00:00 15.4 8 Sur 17 Sur 0 987.6 1.2 67
2020-03-11 20:00:00 16.9 8 Sur 18 Sur 0 987.2 0.9 61
2020-03-11 19:00:00 18.9 11 Sur 21 Sudeste 0 986.8 0.2 55
2020-03-11 18:00:00 21.2 10 Sur 21 Sudoeste 0 986.4 -0.7 44
2020-03-11 17:00:00 23.2 10 Sur 18 Sudoeste 0 986.3 -1.7 31
2020-03-11 16:00:00 23.7 3 Oeste 14 Sudoeste 0 986.6 -2.5 28
2020-03-11 15:00:00 22.1 4 Este 10 Oeste 0 987.1 -2.7 33
2020-03-11 14:00:00 20.4 3 Norte 10 Nordeste 0 988 -1.8 38
2020-03-11 13:00:00 18.4 4 Este 8 Nordeste 0 989.1 -1 40
2020-03-11 12:00:00 15 3 Noroeste 9 Oeste 0 989.8 -0.1 55
2020-03-11 11:00:00 11.5 3 Nordeste 9 Norte 0 989.8 0.5 68
2020-03-11 10:00:00 8.3 3 Nordeste 7 Nordeste 0 990.1 1.2 74
2020-03-11 09:00:00 5.3 3 Nordeste 8 Nordeste 0 989.9 1.3 85
2020-03-11 08:00:00 2.9 3 Norte 8 Norte 0 989.3 1 92
2020-03-11 07:00:00 3.4 5 Nordeste 9 Este 0 988.9 0.6 92
2020-03-11 06:00:00 3.3 3 Nordeste 7 Norte 0 988.6 -0.2 93
2020-03-11 05:00:00 3.7 5 Norte 8 Norte 0 988.3 -1.1 91
2020-03-11 04:00:00 4.4 3 Nordeste 7 Nordeste 0 988.3 -1.3 90
2020-03-11 03:00:00 4.7 4 Nordeste 9 Nordeste 0 988.8 -0.7 89
2020-03-11 02:00:00 5.1 5 Nordeste 10 Norte 0 989.4 -0.1 88
2020-03-11 01:00:00 6.1 3 Nordeste 6 Norte 0 989.6 0.3 87
2020-03-11 00:00:00 7 3 Nordeste 5 Nordeste 0 989.5 0.5 85
2020-03-10 23:00:00 7.8 3 Oeste 7 Nordeste 0 989.5 0.7 80
2020-03-10 22:00:00 8.8 4 Nordeste 8 Norte 0 989.3 0.8 78
2020-03-10 21:00:00 10.1 3 Norte 8 Nordeste 0 989 0.7 73
2020-03-10 20:00:00 11.6 4 Este 10 Este 0 988.8 0.6 64
2020-03-10 19:00:00 12.5 7 Nordeste 12 Nordeste 0 988.5 0 60
2020-03-10 18:00:00 13.4 5 Nordeste 16 Oeste 0 988.3 -0.2 57
2020-03-10 17:00:00 13.3 8 Oeste 14 Oeste 0 988.2 -1 57
2020-03-10 16:00:00 13.2 9 Oeste 18 Oeste 0 988.5 -0.9 56
2020-03-10 15:00:00 13.6 9 Oeste 24 Oeste 0 988.5 -1.1 56
2020-03-10 14:00:00 13.4 14 Oeste 26 Oeste 0 989.2 -1 53
2020-03-10 13:00:00 15.2 6 Oeste 13 Noroeste 0 989.4 -0.8 49
2020-03-10 12:00:00 12.6 4 Norte 12 Oeste 0 989.6 -0.5 59
2020-03-10 11:00:00 10.8 5 Nordeste 13 Nordeste 0 990.2 0.5 63
2020-03-10 10:00:00 7.6 4 Nordeste 8 Nordeste 0 990.2 1.2 73
2020-03-10 09:00:00 4.4 4 Norte 9 Nordeste 0 990.1 1.1 85
2020-03-10 08:00:00 2.9 5 Nordeste 8 Norte 0 989.7 0.9 91
2020-03-10 07:00:00 3.1 4 Norte 12 Nordeste 0 989 0.5 90
2020-03-10 06:00:00 3.8 7 Nordeste 12 Este 0 989 0.5 89
2020-03-10 05:00:00 4.4 8 Nordeste 15 Nordeste 0 988.8 0.1 90
2020-03-10 04:00:00 4.7 5 Este 9 Nordeste 0 988.5 0.5 88
2020-03-10 03:00:00 4.8 3 Sudeste 8 Sudeste 0 988.5 0.7 89
2020-03-10 02:00:00 5.6 2 Sudoeste 6 Nordeste 0 988.7 1.2 86
2020-03-10 01:00:00 6.2 2 Norte 9 Oeste 0 988 1.6 85
2020-03-10 00:00:00 7.7 0 Calma 7 Oeste 0 987.8 2 84
2020-03-09 23:00:00 8.7 3 Oeste 18 Sudeste 0 987.5 2.9 81
2020-03-09 22:00:00 9.7 9 Sur 21 Sur 0 986.4 2.8 79
2020-03-09 21:00:00 10 10 Sur 25 Sur 0 985.8 3.6 78
2020-03-09 20:00:00 10.7 12 Sur 31 Sur 0 984.6 2.3 76
2020-03-09 19:00:00 12.8 15 Sur 30 Oeste 0 983.6 1.3 66
2020-03-09 18:00:00 17.2 16 Oeste 36 Noroeste 0 982.2 -0.5 34
2020-03-09 17:00:00 17.7 17 Oeste 37 Oeste 0 982.3 -1.3 36
2020-03-09 16:00:00 17.8 15 Oeste 43 Oeste 0 982.3 -2.5 33
2020-03-09 15:00:00 17.4 16 Oeste 36 Sudoeste 0 982.7 -2.5 35
2020-03-09 14:00:00 16.3 18 Oeste 33 Oeste 0 983.6 -1.7 38
2020-03-09 13:00:00 15 16 Oeste 31 Oeste 0 984.8 -0.7 40
2020-03-09 12:00:00 15 4 Oeste 13 Sudeste 0 985.2 -0.6 48
2020-03-09 11:00:00 11.8 5 Este 11 Este 0 985.3 -0.2 61
2020-03-09 10:00:00 8.9 3 Este 8 Nordeste 0 985.5 0.6 73
2020-03-09 09:00:00 4.5 4 Sudoeste 13 Norte 0 985.8 0.9 86
2020-03-09 08:00:00 2.8 4 Norte 13 Nordeste 0 985.5 0.8 90
2020-03-09 07:00:00 2.9 5 Norte 9 Nordeste 0 984.9 0.1 90
2020-03-09 06:00:00 3.5 0 Calma 9 Nordeste 0 984.9 -0.3 89
2020-03-09 05:00:00 4 3 Nordeste 11 Nordeste 0 984.7 -0.9 89
2020-03-09 04:00:00 4.2 4 Norte 7 Norte 0 984.8 -0.9 89
2020-03-09 03:00:00 5 4 Norte 8 Este 0 985.2 -0.7 85
2020-03-09 02:00:00 5.5 4 Norte 9 Nordeste 0 985.6 -0.3 84
2020-03-09 01:00:00 6.4 4 Nordeste 10 Nordeste 0 985.7 -0.3 80
2020-03-09 00:00:00 7.5 2 Noroeste 5 Norte 0 985.9 0.1 79
2020-03-08 23:00:00 8.7 3 Nordeste 5 Este 0 985.9 0 73
2020-03-08 22:00:00 10.3 4 Oeste 15 Sudoeste 0 986 0.1 71
2020-03-08 21:00:00 12.3 5 Sur 12 Sudoeste 0 985.8 0.2 63
2020-03-08 20:00:00 13.2 0 Calma 5 Sudeste 0 985.9 0.3 53
2020-03-08 19:00:00 14.3 4 Oeste 12 Noroeste 0 985.9 0.2 49
2020-03-08 18:00:00 15.5 8 Oeste 23 Oeste 0 985.6 -0.3 42
2020-03-08 17:00:00 16.8 10 Oeste 28 Noroeste 0 985.6 -1.3 41
2020-03-08 16:00:00 17.1 15 Oeste 24 Noroeste 0 985.7 -2.2 35
2020-03-08 15:00:00 17.3 13 Noroeste 24 Noroeste 0 985.9 -2.9 37
2020-03-08 14:00:00 16.5 6 Noroeste 14 Oeste 0 986.9 -2.3 44
2020-03-08 13:00:00 15.1 3 Oeste 9 Nordeste 0 987.9 -1.7 55
2020-03-08 12:00:00 12.7 3 Este 9 Nordeste 0 988.8 -0.3 57
2020-03-08 11:00:00 10.6 5 Este 12 Nordeste 0 989.2 0.7 64
2020-03-08 10:00:00 7.6 6 Nordeste 12 Nordeste 0 989.6 1.3 70
2020-03-08 09:00:00 4.3 6 Nordeste 12 Norte 0 989.1 1 82
2020-03-08 08:00:00 2.8 8 Nordeste 12 Nordeste 0 988.5 0.2 86
2020-03-08 07:00:00 3.3 5 Nordeste 10 Nordeste 0 988.3 -0.2 84
2020-03-08 06:00:00 4.2 3 Noroeste 9 Nordeste 0 988.1 -0.9 81
2020-03-08 05:00:00 4.8 3 Nordeste 9 Nordeste 0 988.3 -1.1 80
2020-03-08 04:00:00 5.3 4 Norte 8 Norte 0 988.5 -0.7 78
2020-03-08 03:00:00 6.1 4 Nordeste 9 Nordeste 0 989 0 76
2020-03-08 02:00:00 6.7 6 Nordeste 9 Nordeste 0 989.4 1 76
2020-03-08 01:00:00 7.2 3 Nordeste 8 Nordeste 0 989.2 1.7 76
2020-03-08 00:00:00 8 2 Nordeste 9 Sudoeste 0 989 2.7 72
2020-03-07 23:00:00 9.7 5 Sur 12 Sudoeste 0 988.4 2.9 73
2020-03-07 22:00:00 10.1 4 Este 17 Sur 0 987.5 3.1 66
2020-03-07 21:00:00 11.4 9 Sur 19 Sudoeste 0 986.3 2.7 55
2020-03-07 20:00:00 13 7 Sur 19 Sur 0 985.5 2.1 43
2020-03-07 19:00:00 14.1 9 Oeste 31 Oeste 0 984.4 1 38
2020-03-07 18:00:00 16.3 12 Oeste 28 Oeste 0 983.6 -0.1 30
2020-03-07 17:00:00 16.5 12 Oeste 26 Oeste 0 983.4 -1 26
2020-03-07 16:00:00 16.6 12 Oeste 26 Oeste 0 983.4 -1.2 30
2020-03-07 15:00:00 15.3 14 Oeste 31 Oeste 0 983.7 -1 36
2020-03-07 14:00:00 13.6 18 Noroeste 36 Oeste 0 984.4 -0.2 42
2020-03-07 13:00:00 12.9 18 Oeste 31 Noroeste 0 984.6 0.3 39
2020-03-07 12:00:00 12.4 13 Oeste 25 Oeste 0 984.7 0.8 46
2020-03-07 11:00:00 11.2 7 Sudoeste 14 Sudoeste 0 984.6 1.7 43
2020-03-07 10:00:00 7.9 8 Sur 15 Sur 0 984.3 2.1 50
2020-03-07 09:00:00 4.1 5 Oeste 15 Noroeste 0 983.9 2.3 63
2020-03-07 08:00:00 0 3 Este 12 Oeste 0 982.9 1.9 81
2020-03-07 07:00:00 0.4 5 Este 15 Este 0 982.2 1.6 76
2020-03-07 06:00:00 1.4 2 Sudoeste 11 Sudeste 0 981.6 1 73
2020-03-07 05:00:00 2.4 2 Sudoeste 11 Noroeste 0 981 0.7 67
2020-03-07 04:00:00 3 3 Sudeste 9 Noroeste 0 980.6 0.1 64
2020-03-07 03:00:00 4 4 Nordeste 16 Este 0 980.6 0.4 61
2020-03-07 02:00:00 7 10 Noroeste 27 Noroeste 0 980.3 0.5 43
2020-03-07 01:00:00 6.4 12 Oeste 27 Oeste 0 980.5 1.7 50
2020-03-07 00:00:00 6.3 16 Oeste 26 Oeste 0 980.2 2 51
2020-03-06 23:00:00 7.6 21 Noroeste 37 Oeste 0 979.8 2.8 44
2020-03-06 22:00:00 7.2 20 Oeste 30 Oeste 0 978.8 3.2 52
2020-03-06 21:00:00 7.5 10 Oeste 27 Oeste 0 978.2 4.1 54
2020-03-06 20:00:00 8.9 13 Oeste 30 Oeste 0 977 3.9 49
2020-03-06 19:00:00 11 17 Oeste 32 Oeste 0 975.6 2.5 37
2020-03-06 18:00:00 12.1 13 Noroeste 40 Noroeste 0 974.1 1 38
2020-03-06 17:00:00 12.3 20 Oeste 33 Noroeste 0 973.1 0.5 46
2020-03-06 16:00:00 10.5 10 Oeste 42 Oeste 0.2 973.1 -0.4 58
2020-03-06 15:00:00 11.2 7 Oeste 50 Oeste 0.2 973.1 -1.2 45
2020-03-06 14:00:00 13.9 22 Oeste 48 Oeste 0 972.6 -1.8 40
2020-03-06 13:00:00 12.7 22 Oeste 44 Sudoeste 0 973.5 -1.3 47
2020-03-06 12:00:00 11.9 13 Oeste 32 Oeste 0 974.3 -0.4 53
2020-03-06 11:00:00 9.9 16 Oeste 32 Oeste 0 974.4 -0.3 58
2020-03-06 10:00:00 7.3 3 Nordeste 17 Nordeste 0 974.8 0 66
2020-03-06 09:00:00 3.1 8 Este 16 Este 0 974.7 0.4 83
2020-03-06 08:00:00 3.1 6 Nordeste 19 Noroeste 0 974.7 0.3 81
2020-03-06 07:00:00 2.6 8 Nordeste 18 Norte 0 974.8 0.7 84
2020-03-06 06:00:00 5.2 7 Norte 22 Oeste 0 974.3 -0.1 73
2020-03-06 05:00:00 6 5 Norte 22 Noroeste 0 974.4 0.4 68
2020-03-06 04:00:00 6.7 8 Noroeste 20 Oeste 0 974.1 0.1 64
2020-03-06 03:00:00 7.2 5 Norte 23 Oeste 0 974.4 0.5 63
2020-03-06 02:00:00 7.9 12 Noroeste 28 Oeste 0 974 1 63
2020-03-06 01:00:00 8.4 4 Noroeste 17 Oeste 0 974 1.9 63
2020-03-06 00:00:00 9.5 8 Oeste 14 Oeste 0 973.9 2.9 60
2020-03-05 23:00:00 10.6 7 Sudoeste 25 Oeste 0 973 2.2 57
2020-03-05 22:00:00 11.4 14 Oeste 35 Oeste 0 972.1 2.2 56
2020-03-05 21:00:00 12.9 13 Oeste 23 Noroeste 0 971 2.4 47
2020-03-05 20:00:00 14.6 11 Oeste 28 Noroeste 0 970.8 2 41
2020-03-05 19:00:00 15.9 15 Noroeste 49 Oeste 0 969.9 0.8 35
2020-03-05 18:00:00 16.8 22 Oeste 53 Oeste 0 968.6 -0.9 39
2020-03-05 17:00:00 17.5 28 Oeste 50 Oeste 0 968.8 -1.6 52
2020-03-05 16:00:00 17.5 19 Oeste 41 Oeste 0 969.1 -2.5 56
2020-03-05 15:00:00 18.7 23 Oeste 41 Oeste 0 969.5 -2.6 50
2020-03-05 14:00:00 17.2 20 Noroeste 44 Noroeste 0 970.4 -2.1 52
2020-03-05 13:00:00 16.9 17 Oeste 50 Noroeste 0 971.6 -2 51
2020-03-05 12:00:00 17.4 19 Oeste 42 Oeste 0 972.1 -2.5 56
2020-03-05 11:00:00 14.9 4 Sudoeste 11 Sudoeste 0 972.5 -2.3 65
2020-03-05 10:00:00 11 3 Nordeste 9 Nordeste 0 973.6 -1.7 78
2020-03-05 09:00:00 6.8 3 Norte 10 Nordeste 0 974.6 -1.6 91
2020-03-05 08:00:00 5.8 6 Nordeste 10 Nordeste 0 974.8 -2.1 93
2020-03-05 07:00:00 6.2 3 Nordeste 10 Nordeste 0 975.3 -2.6 92
2020-03-05 06:00:00 6.4 3 Nordeste 5 Nordeste 0 976.2 -2.7 92
2020-03-05 05:00:00 6.8 2 Sur 11 Nordeste 0 976.9 -2.6 91
2020-03-05 04:00:00 7.3 6 Nordeste 9 Nordeste 0 977.9 -2.4 91
2020-03-05 03:00:00 7.9 3 Este 10 Norte 0 978.9 -1.8 90
2020-03-05 02:00:00 8.3 3 Nordeste 9 Nordeste 0 979.5 -1.4 89
2020-03-05 01:00:00 8.9 2 Sudeste 7 Sudoeste 0 980.3 -0.7 88
2020-03-05 00:00:00 10 4 Nordeste 12 Nordeste 0 980.7 -0.1 84
2020-03-04 23:00:00 10.5 6 Nordeste 11 Nordeste 0 980.9 0.7 82
2020-03-04 22:00:00 11.9 2 Este 10 Sur 0 981 1.5 77
2020-03-04 21:00:00 12.7 4 Sudeste 22 Sudeste 0 980.8 1.4 74
2020-03-04 20:00:00 12.8 16 Sur 31 Sur 0 980.2 0.9 73
2020-03-04 19:00:00 13.7 15 Sur 31 Sur 0 979.5 -0.2 69
2020-03-04 18:00:00 15.5 15 Sur 33 Sur 0 979.4 -0.9 60
2020-03-04 17:00:00 16.4 17 Sur 32 Sur 0 979.3 -1.8 52
2020-03-04 16:00:00 18.8 10 Oeste 28 Oeste 0 979.7 -1.9 55
2020-03-04 15:00:00 17.8 8 Oeste 27 Oeste 0 980.3 -2.1 57
2020-03-04 14:00:00 16.7 14 Oeste 33 Oeste 0 981.1 -1.4 57
2020-03-04 13:00:00 15.6 8 Sur 13 Sudoeste 0 981.6 -0.5 49
2020-03-04 12:00:00 12.9 4 Nordeste 10 Nordeste 0 982.4 0.5 56
2020-03-04 11:00:00 11.1 6 Nordeste 14 Nordeste 0 982.5 1.5 62
2020-03-04 10:00:00 7.3 4 Nordeste 13 Nordeste 0 982.1 1.9 72
2020-03-04 09:00:00 5.4 7 Este 15 Este 0 981.9 1.7 77
2020-03-04 08:00:00 7.2 4 Sur 19 Noroeste 0 981 1.9 72
2020-03-04 07:00:00 7.7 10 Noroeste 25 Oeste 0 980.2 1.4 66
2020-03-04 06:00:00 8.2 13 Oeste 29 Oeste 0 980.2 1.2 63
2020-03-04 05:00:00 8.4 5 Noroeste 32 Noroeste 0 979.1 0.7 61
2020-03-04 04:00:00 9.1 17 Noroeste 33 Oeste 0 978.8 0.6 60
2020-03-04 03:00:00 9.2 12 Oeste 31 Oeste 0 979 1.3 58
2020-03-04 02:00:00 9.5 17 Noroeste 31 Noroeste 0 978.4 1.7 55
2020-03-04 01:00:00 9.6 18 Noroeste 35 Oeste 0 978.2 2.9 58
2020-03-04 00:00:00 10 12 Oeste 24 Oeste 0 977.7 4.1 57
2020-03-03 23:00:00 10.9 12 Noroeste 28 Noroeste 0 976.7 4.8 57
2020-03-03 22:00:00 10.8 8 Oeste 22 Oeste 0 975.3 4.7 61
2020-03-03 21:00:00 10.5 11 Oeste 20 Noroeste 0 973.6 3.8 67
2020-03-03 20:00:00 10.4 4 Noroeste 27 Oeste 0 971.9 1.8 72
2020-03-03 19:00:00 11 12 Noroeste 37 Noroeste 0 970.6 -0.4 69
2020-03-03 18:00:00 11.7 23 Oeste 40 Oeste 0 969.8 -2.2 65
2020-03-03 17:00:00 11.1 22 Oeste 38 Noroeste 0 970.1 -3 66
2020-03-03 16:00:00 11 20 Oeste 39 Noroeste 0 971 -3.9 63
2020-03-03 15:00:00 10 24 Oeste 51 Oeste 0 972 -4 65
2020-03-03 14:00:00 10.3 17 Oeste 44 Noroeste 0 973.1 -3.5 60
2020-03-03 13:00:00 10 21 Oeste 42 Noroeste 0 974.9 -2.8 59
2020-03-03 12:00:00 10.9 14 Oeste 38 Oeste 0 976 -2.3 53
2020-03-03 11:00:00 8.5 8 Oeste 15 Oeste 0 976.6 -0.8 59
2020-03-03 10:00:00 6.2 10 Oeste 26 Oeste 0 977.7 -0.1 67
2020-03-03 09:00:00 5.7 10 Oeste 28 Oeste 0 978.3 0.5 67
2020-03-03 08:00:00 4.9 15 Oeste 32 Oeste 0 977.4 0.2 70
2020-03-03 07:00:00 4.8 17 Oeste 28 Oeste 0 977.8 0.4 71
2020-03-03 06:00:00 5 17 Oeste 39 Oeste 0 977.8 0.2 70
2020-03-03 05:00:00 5 20 Oeste 39 Noroeste 0 977.2 -0.3 69
2020-03-03 04:00:00 5.4 23 Oeste 43 Noroeste 0 977.4 0.9 66
2020-03-03 03:00:00 5.1 13 Noroeste 25 Oeste 0 977.6 1.8 68
2020-03-03 02:00:00 5.6 16 Oeste 31 Oeste 0 977.5 2.2 63
2020-03-03 01:00:00 5.7 8 Oeste 24 Oeste 0 976.5 2.5 64
2020-03-03 00:00:00 6.6 12 Noroeste 36 Oeste 0 975.8 3.4 59
2020-03-02 23:00:00 7 21 Oeste 44 Oeste 0 975.3 4.5 58
2020-03-02 22:00:00 7.9 24 Oeste 46 Noroeste 0 974 4.9 56
2020-03-02 21:00:00 8.7 18 Oeste 39 Noroeste 0 972.4 5.4 51
2020-03-02 20:00:00 10 21 Oeste 48 Noroeste 0 970.8 4.7 46
2020-03-02 19:00:00 11.6 24 Oeste 50 Oeste 0 969.1 4.6 41
2020-03-02 18:00:00 13.3 29 Oeste 65 Oeste 0 967 3.3 35
2020-03-02 17:00:00 12.8 33 Oeste 73 Oeste 0 966.1 2.9 39
2020-03-02 16:00:00 14.5 39 Oeste 67 Oeste 0.2 964.5 1.6 38
2020-03-02 15:00:00 15.7 29 Oeste 58 Oeste 0 963.7 2.8 40
2020-03-02 14:00:00 14 27 Oeste 58 Oeste 0 963.2 3.2 52
2020-03-02 13:00:00 12 27 Oeste 62 Oeste 0 962.9 2.6 62
2020-03-02 12:00:00 13.1 35 Oeste 72 Oeste 0.2 960.9 -0.7 59
2020-03-02 11:00:00 14.2 16 Oeste 55 Oeste 0 960 0.7 56
2020-03-02 10:00:00 12 14 Oeste 56 Oeste 0.4 960.3 -0.6 69
2020-03-02 09:00:00 12.4 24 Oeste 61 Oeste 0.8 961.6 -1 74
2020-03-02 08:00:00 12.9 8 Sur 23 Sur 0 959.3 -4.7 75
2020-03-02 07:00:00 12.7 10 Sudoeste 28 Sudoeste 0 960.9 -4.3 77
2020-03-02 06:00:00 11 8 Sudoeste 16 Sur 1 962.6 -4.9 89
2020-03-02 05:00:00 8.6 2 Sudoeste 9 Nordeste 1 964 -5.5 90
2020-03-02 04:00:00 8.7 3 Nordeste 10 Nordeste 0.8 965.2 -5.8 84
2020-03-02 03:00:00 9.5 4 Nordeste 8 Oeste 0 967.5 -5.1 78
2020-03-02 02:00:00 9.4 2 Oeste 8 Norte 0 969.5 -4 72
2020-03-02 01:00:00 10.3 3 Nordeste 9 Norte 0 971 -2.7 65
2020-03-02 00:00:00 10.9 3 Noroeste 10 Sudoeste 0 972.6 -1.5 63
2020-03-01 23:00:00 11.7 4 Sudoeste 8 Sudoeste 0 973.5 -0.9 57
2020-03-01 22:00:00 11.8 2 Oeste 7 Noroeste 0 973.7 -0.3 57
2020-03-01 21:00:00 13.2 0 Calma 10 Sur 0 974.1 0.6 53
2020-03-01 20:00:00 15.2 5 Sur 14 Sur 0 974.4 0.6 43
2020-03-01 19:00:00 16.5 6 Sudoeste 24 Oeste 0 974 0.4 41
2020-03-01 18:00:00 17.8 13 Oeste 44 Sudoeste 0 973.5 -0.5 38
2020-03-01 17:00:00 18.3 20 Oeste 54 Oeste 0 973.8 -0.9 37
2020-03-01 16:00:00 17.9 23 Oeste 50 Oeste 0 973.6 -1.6 39
2020-03-01 15:00:00 17.5 24 Oeste 44 Noroeste 0 974 -1.6 40
2020-03-01 14:00:00 16.6 23 Oeste 45 Oeste 0 974.7 -1.2 44
2020-03-01 13:00:00 15.5 22 Oeste 47 Oeste 0 975.2 -0.6 46
2020-03-01 12:00:00 15 18 Oeste 37 Oeste 0 975.6 -0.4 47
2020-03-01 11:00:00 14.3 18 Oeste 31 Oeste 0 975.9 0.5 47
2020-03-01 10:00:00 13.1 7 Sudoeste 20 Oeste 0 975.8 0.7 49
2020-03-01 09:00:00 11 6 Sudoeste 12 Oeste 0 976 0.9 57
2020-03-01 08:00:00 11 6 Sudoeste 17 Sudoeste 0 975.4 0.3 56
2020-03-01 07:00:00 11.9 8 Sudoeste 17 Sudoeste 0 975.1 0.2 54
2020-03-01 06:00:00 12.1 6 Sudoeste 18 Sudoeste 0 975.1 -0.3 56
2020-03-01 05:00:00 12.6 11 Sudoeste 23 Sudoeste 0 975.1 -0.3 57
2020-03-01 04:00:00 13 10 Sudoeste 17 Sudoeste 0 974.9 -0.8 58
2020-03-01 03:00:00 12.8 6 Sudoeste 21 Sur 0 975.4 -0.4 59
2020-03-01 02:00:00 13.1 9 Sur 15 Sur 0 975.4 -0.3 60
2020-03-01 01:00:00 11.3 3 Sur 9 Sudoeste 0 975.7 0.1 69
2020-03-01 00:00:00 12 3 Sur 6 Sudoeste 0 975.8 0.6 65
2020-02-29 23:00:00 12.6 0 Calma 7 Oeste 0 975.7 0.8 61
2020-02-29 22:00:00 13.4 3 Sudoeste 11 Oeste 0 975.6 1.1 56
2020-02-29 21:00:00 13.6 2 Sur 10 Sudoeste 0 975.2 1.1 55
2020-02-29 20:00:00 14.8 5 Sudoeste 16 Oeste 0 974.9 0.7 49
2020-02-29 19:00:00 16 12 Oeste 26 Sudoeste 0 974.5 0.1 42
2020-02-29 18:00:00 16.7 12 Oeste 30 Oeste 0 974.1 -0.5 40
2020-02-29 17:00:00 17.2 14 Oeste 28 Oeste 0 974.2 -1 40
2020-02-29 16:00:00 17.3 17 Oeste 36 Noroeste 0 974.4 -1.4 37
2020-02-29 15:00:00 17.4 17 Oeste 37 Oeste 0 974.6 -2 39
2020-02-29 14:00:00 18.4 17 Oeste 33 Oeste 0 975.2 -2.3 39
2020-02-29 13:00:00 17.1 5 Oeste 18 Sudoeste 0 975.8 -2.1 53
2020-02-29 12:00:00 13.7 5 Oeste 9 Oeste 0 976.6 -1.5 75
2020-02-29 11:00:00 10 3 Norte 9 Nordeste 0 977.5 -0.7 84
2020-02-29 10:00:00 7.8 2 Noroeste 8 Oeste 0 977.9 -0.9 95
2020-02-29 09:00:00 7.3 2 Norte 6 Oeste 0 978.1 -0.9 95
2020-02-29 08:00:00 6.9 5 Oeste 6 Oeste 0 978.2 -1.2 94
2020-02-29 07:00:00 7.4 3 Nordeste 5 Oeste 0 978.8 -1.5 94
2020-02-29 06:00:00 7.4 2 Sur 6 Oeste 0 979 -2.8 94
2020-02-29 05:00:00 7.2 4 Oeste 8 Noroeste 0 979.4 -3.1 93
2020-02-29 04:00:00 7.3 3 Sudoeste 7 Oeste 0 980.3 -3.3 92
2020-02-29 03:00:00 6.8 0 Calma 5 Oeste 0 981.8 -2.6 91
2020-02-29 02:00:00 8 0 Calma 6 Oeste 0 982.5 -2.2 90
2020-02-29 01:00:00 9 0 Calma 9 Oeste 0 983.6 -1.2 89
2020-02-29 00:00:00 9 3 Oeste 6 Oeste 0 984.4 -1 88